sensor_id;sensor_type;location;lat;lon;timestamp;P1;durP1;ratioP1;P2;durP2;ratioP2
58512;SDS011;44302;47.914;10.642;2023-05-02T05:15:11;4.30;;;3.90;;
58512;SDS011;44302;47.914;10.642;2023-05-02T05:23:16;4.80;;;4.20;;
58512;SDS011;44302;47.914;10.642;2023-05-02T05:29:59;5.27;;;3.87;;
58512;SDS011;44302;47.914;10.642;2023-05-02T05:34:53;4.40;;;4.00;;
58512;SDS011;44302;47.914;10.642;2023-05-02T05:39:23;4.87;;;3.87;;
58512;SDS011;44302;47.914;10.642;2023-05-02T05:44:10;4.80;;;4.13;;
58512;SDS011;44302;47.914;10.642;2023-05-02T05:48:05;3.80;;;3.50;;
58512;SDS011;44302;47.914;10.642;2023-05-02T05:52:07;4.03;;;3.67;;
58512;SDS011;44302;47.914;10.642;2023-05-02T05:56:08;4.97;;;3.50;;
58512;SDS011;44302;47.914;10.642;2023-05-02T06:00:04;3.90;;;3.50;;
58512;SDS011;44302;47.914;10.642;2023-05-02T06:04:00;3.40;;;3.00;;
58512;SDS011;44302;47.914;10.642;2023-05-02T06:08:13;4.30;;;3.80;;
58512;SDS011;44302;47.914;10.642;2023-05-02T06:11:58;4.83;;;3.73;;
58512;SDS011;44302;47.914;10.642;2023-05-02T06:15:41;6.37;;;4.57;;
58512;SDS011;44302;47.914;10.642;2023-05-02T06:19:40;6.63;;;4.07;;
58512;SDS011;44302;47.914;10.642;2023-05-02T06:23:37;6.10;;;4.60;;
58512;SDS011;44302;47.914;10.642;2023-05-02T06:27:36;4.47;;;3.80;;
58512;SDS011;44302;47.914;10.642;2023-05-02T06:31:37;3.73;;;3.33;;
58512;SDS011;44302;47.914;10.642;2023-05-02T06:34:03;3.63;;;3.33;;
58512;SDS011;44302;47.914;10.642;2023-05-02T06:36:29;4.40;;;3.00;;
58512;SDS011;44302;47.914;10.642;2023-05-02T06:38:55;5.63;;;4.03;;
58512;SDS011;44302;47.914;10.642;2023-05-02T06:41:21;4.10;;;3.27;;
58512;SDS011;44302;47.914;10.642;2023-05-02T06:43:47;4.10;;;3.30;;
58512;SDS011;44302;47.914;10.642;2023-05-02T06:46:13;4.27;;;3.80;;
58512;SDS011;44302;47.914;10.642;2023-05-02T06:48:39;6.13;;;3.70;;
58512;SDS011;44302;47.914;10.642;2023-05-02T06:51:04;4.60;;;3.80;;
58512;SDS011;44302;47.914;10.642;2023-05-02T06:53:30;4.00;;;3.70;;
58512;SDS011;44302;47.914;10.642;2023-05-02T06:55:56;6.70;;;3.90;;
58512;SDS011;44302;47.914;10.642;2023-05-02T06:58:22;5.53;;;4.30;;
58512;SDS011;44302;47.914;10.642;2023-05-02T07:00:48;4.90;;;4.00;;
58512;SDS011;44302;47.914;10.642;2023-05-02T07:03:14;4.73;;;4.23;;
58512;SDS011;44302;47.914;10.642;2023-05-02T07:05:40;4.23;;;3.83;;
58512;SDS011;44302;47.914;10.642;2023-05-02T07:08:06;6.17;;;4.63;;
58512;SDS011;44302;47.914;10.642;2023-05-02T07:10:31;5.40;;;4.17;;
58512;SDS011;44302;47.914;10.642;2023-05-02T07:12:57;7.37;;;4.50;;
58512;SDS011;44302;47.914;10.642;2023-05-02T07:15:23;5.33;;;4.73;;
58512;SDS011;44302;47.914;10.642;2023-05-02T07:17:48;6.13;;;4.70;;
58512;SDS011;44302;47.914;10.642;2023-05-02T07:20:14;5.57;;;4.87;;
58512;SDS011;44302;47.914;10.642;2023-05-02T07:22:40;6.90;;;5.63;;
58512;SDS011;44302;47.914;10.642;2023-05-02T07:25:06;4.87;;;4.37;;
58512;SDS011;44302;47.914;10.642;2023-05-02T07:27:32;5.60;;;4.83;;
58512;SDS011;44302;47.914;10.642;2023-05-02T07:29:58;7.27;;;5.97;;
58512;SDS011;44302;47.914;10.642;2023-05-02T07:32:23;5.53;;;4.87;;
58512;SDS011;44302;47.914;10.642;2023-05-02T07:34:50;5.80;;;4.97;;
58512;SDS011;44302;47.914;10.642;2023-05-02T07:37:18;5.53;;;4.90;;
58512;SDS011;44302;47.914;10.642;2023-05-02T07:39:45;6.77;;;5.20;;
58512;SDS011;44302;47.914;10.642;2023-05-02T07:42:10;6.93;;;6.10;;
58512;SDS011;44302;47.914;10.642;2023-05-02T07:44:36;6.33;;;5.63;;
58512;SDS011;44302;47.914;10.642;2023-05-02T07:47:02;6.87;;;5.70;;
58512;SDS011;44302;47.914;10.642;2023-05-02T07:51:29;5.80;;;5.20;;
58512;SDS011;44302;47.914;10.642;2023-05-02T07:56:39;7.13;;;5.20;;
58512;SDS011;44302;47.914;10.642;2023-05-02T08:00:56;7.00;;;5.17;;
58512;SDS011;44302;47.914;10.642;2023-05-02T08:03:22;7.53;;;6.17;;
58512;SDS011;44302;47.914;10.642;2023-05-02T08:05:47;6.13;;;5.50;;
58512;SDS011;44302;47.914;10.642;2023-05-02T08:08:13;9.03;;;5.70;;
58512;SDS011;44302;47.914;10.642;2023-05-02T08:10:39;6.83;;;5.97;;
58512;SDS011;44302;47.914;10.642;2023-05-02T08:13:04;10.17;;;6.80;;
58512;SDS011;44302;47.914;10.642;2023-05-02T08:15:30;6.70;;;5.93;;
58512;SDS011;44302;47.914;10.642;2023-05-02T08:17:55;5.90;;;5.37;;
58512;SDS011;44302;47.914;10.642;2023-05-02T08:20:21;5.83;;;5.23;;
58512;SDS011;44302;47.914;10.642;2023-05-02T08:22:47;6.40;;;5.80;;
58512;SDS011;44302;47.914;10.642;2023-05-02T08:25:12;9.20;;;5.97;;
58512;SDS011;44302;47.914;10.642;2023-05-02T08:27:38;6.70;;;5.30;;
58512;SDS011;44302;47.914;10.642;2023-05-02T08:30:04;6.17;;;5.30;;
58512;SDS011;44302;47.914;10.642;2023-05-02T08:32:31;5.90;;;5.20;;
58512;SDS011;44302;47.914;10.642;2023-05-02T08:34:57;5.67;;;5.03;;
58512;SDS011;44302;47.914;10.642;2023-05-02T08:37:22;6.77;;;6.10;;
58512;SDS011;44302;47.914;10.642;2023-05-02T08:39:48;8.47;;;5.83;;
58512;SDS011;44302;47.914;10.642;2023-05-02T08:42:14;5.80;;;5.30;;
58512;SDS011;44302;47.914;10.642;2023-05-02T08:44:39;6.20;;;5.53;;
58512;SDS011;44302;47.914;10.642;2023-05-02T08:47:05;7.43;;;5.50;;
58512;SDS011;44302;47.914;10.642;2023-05-02T08:49:34;5.83;;;5.33;;
58512;SDS011;44302;47.914;10.642;2023-05-02T08:52:02;6.43;;;5.83;;
58512;SDS011;44302;47.914;10.642;2023-05-02T08:54:30;5.70;;;5.20;;
58512;SDS011;44302;47.914;10.642;2023-05-02T08:56:56;8.27;;;6.30;;
58512;SDS011;44302;47.914;10.642;2023-05-02T08:59:23;6.43;;;5.77;;
58512;SDS011;44302;47.914;10.642;2023-05-02T09:01:51;6.90;;;6.20;;
58512;SDS011;44302;47.914;10.642;2023-05-02T09:04:22;7.23;;;6.43;;
58512;SDS011;44302;47.914;10.642;2023-05-02T09:06:52;8.50;;;6.43;;
58512;SDS011;44302;47.914;10.642;2023-05-02T09:09:17;7.53;;;6.13;;
58512;SDS011;44302;47.914;10.642;2023-05-02T09:11:45;6.43;;;5.57;;
58512;SDS011;44302;47.914;10.642;2023-05-02T09:14:15;6.13;;;5.43;;
58512;SDS011;44302;47.914;10.642;2023-05-02T09:16:41;6.27;;;5.50;;
58512;SDS011;44302;47.914;10.642;2023-05-02T09:19:07;9.40;;;6.20;;
58512;SDS011;44302;47.914;10.642;2023-05-02T09:21:34;7.43;;;6.67;;
58512;SDS011;44302;47.914;10.642;2023-05-02T09:24:17;7.43;;;6.47;;
58512;SDS011;44302;47.914;10.642;2023-05-02T09:27:03;6.83;;;6.23;;
58512;SDS011;44302;47.914;10.642;2023-05-02T09:29:30;10.20;;;6.80;;
58512;SDS011;44302;47.914;10.642;2023-05-02T09:32:02;6.87;;;6.20;;
58512;SDS011;44302;47.914;10.642;2023-05-02T09:34:28;7.13;;;6.07;;
58512;SDS011;44302;47.914;10.642;2023-05-02T09:36:55;8.10;;;6.53;;
58512;SDS011;44302;47.914;10.642;2023-05-02T09:39:25;9.43;;;7.10;;
58512;SDS011;44302;47.914;10.642;2023-05-02T09:41:55;10.27;;;6.43;;
58512;SDS011;44302;47.914;10.642;2023-05-02T09:44:25;8.37;;;7.10;;
58512;SDS011;44302;47.914;10.642;2023-05-02T09:47:00;7.97;;;6.87;;
58512;SDS011;44302;47.914;10.642;2023-05-02T09:49:44;6.90;;;6.20;;
58512;SDS011;44302;47.914;10.642;2023-05-02T09:52:11;9.47;;;5.80;;
58512;SDS011;44302;47.914;10.642;2023-05-02T09:54:37;5.77;;;5.27;;
58512;SDS011;44302;47.914;10.642;2023-05-02T09:57:03;7.80;;;5.63;;
58512;SDS011;44302;47.914;10.642;2023-05-02T09:59:31;6.90;;;6.20;;
58512;SDS011;44302;47.914;10.642;2023-05-02T10:01:57;7.50;;;5.33;;
58512;SDS011;44302;47.914;10.642;2023-05-02T10:04:25;5.33;;;4.83;;
58512;SDS011;44302;47.914;10.642;2023-05-02T10:06:52;6.00;;;4.87;;
58512;SDS011;44302;47.914;10.642;2023-05-02T10:09:19;5.23;;;4.73;;
58512;SDS011;44302;47.914;10.642;2023-05-02T10:11:46;4.63;;;4.17;;
58512;SDS011;44302;47.914;10.642;2023-05-02T10:14:15;4.27;;;3.87;;
58512;SDS011;44302;47.914;10.642;2023-05-02T10:19:53;5.83;;;4.23;;
58512;SDS011;44302;47.914;10.642;2023-05-02T10:22:30;4.60;;;4.20;;
58512;SDS011;44302;47.914;10.642;2023-05-02T10:24:58;7.10;;;4.23;;
58512;SDS011;44302;47.914;10.642;2023-05-02T10:27:25;5.03;;;4.63;;
58512;SDS011;44302;47.914;10.642;2023-05-02T10:29:53;5.83;;;4.33;;
58512;SDS011;44302;47.914;10.642;2023-05-02T10:32:21;4.40;;;4.00;;
58512;SDS011;44302;47.914;10.642;2023-05-02T10:34:48;4.90;;;4.50;;
58512;SDS011;44302;47.914;10.642;2023-05-02T10:37:15;5.40;;;4.00;;
58512;SDS011;44302;47.914;10.642;2023-05-02T10:39:42;5.30;;;4.80;;
58512;SDS011;44302;47.914;10.642;2023-05-02T10:42:08;4.47;;;4.07;;
58512;SDS011;44302;47.914;10.642;2023-05-02T10:44:34;5.53;;;4.80;;
58512;SDS011;44302;47.914;10.642;2023-05-02T10:47:16;5.10;;;4.03;;
58512;SDS011;44302;47.914;10.642;2023-05-02T10:49:51;6.47;;;4.27;;
58512;SDS011;44302;47.914;10.642;2023-05-02T10:52:35;5.43;;;4.93;;
58512;SDS011;44302;47.914;10.642;2023-05-02T11:00:28;5.63;;;5.03;;
58512;SDS011;44302;47.914;10.642;2023-05-02T11:02:58;5.57;;;5.07;;
58512;SDS011;44302;47.914;10.642;2023-05-02T11:05:24;5.97;;;5.47;;
58512;SDS011;44302;47.914;10.642;2023-05-02T11:10:41;6.30;;;5.70;;
58512;SDS011;44302;47.914;10.642;2023-05-02T11:13:10;5.27;;;4.43;;
58512;SDS011;44302;47.914;10.642;2023-05-02T11:31:51;3.90;;;3.40;;
58512;SDS011;44302;47.914;10.642;2023-05-02T11:34:18;3.77;;;3.20;;
58512;SDS011;44302;47.914;10.642;2023-05-02T11:36:45;3.90;;;3.17;;
58512;SDS011;44302;47.914;10.642;2023-05-02T11:39:17;4.67;;;3.30;;
58512;SDS011;44302;47.914;10.642;2023-05-02T11:41:44;3.50;;;3.13;;
58512;SDS011;44302;47.914;10.642;2023-05-02T11:44:12;6.47;;;3.27;;
58512;SDS011;44302;47.914;10.642;2023-05-02T11:46:38;6.70;;;3.40;;
58512;SDS011;44302;47.914;10.642;2023-05-02T11:49:04;4.20;;;3.60;;
58512;SDS011;44302;47.914;10.642;2023-05-02T11:51:31;5.90;;;3.03;;
58512;SDS011;44302;47.914;10.642;2023-05-02T11:53:57;5.23;;;3.00;;
58512;SDS011;44302;47.914;10.642;2023-05-02T11:56:23;4.97;;;3.20;;
58512;SDS011;44302;47.914;10.642;2023-05-02T11:59:00;4.10;;;3.33;;
58512;SDS011;44302;47.914;10.642;2023-05-02T12:01:27;3.23;;;2.63;;
58512;SDS011;44302;47.914;10.642;2023-05-02T12:04:03;3.00;;;2.27;;
58512;SDS011;44302;47.914;10.642;2023-05-02T12:06:31;3.00;;;2.70;;
58512;SDS011;44302;47.914;10.642;2023-05-02T12:09:12;6.73;;;2.90;;
58512;SDS011;44302;47.914;10.642;2023-05-02T12:11:41;3.73;;;2.80;;
58512;SDS011;44302;47.914;10.642;2023-05-02T12:14:07;6.80;;;2.90;;
58512;SDS011;44302;47.914;10.642;2023-05-02T12:16:33;3.60;;;2.57;;
58512;SDS011;44302;47.914;10.642;2023-05-02T12:18:59;3.27;;;2.97;;
58512;SDS011;44302;47.914;10.642;2023-05-02T12:21:26;3.13;;;2.83;;
58512;SDS011;44302;47.914;10.642;2023-05-02T12:23:53;3.70;;;3.10;;
58512;SDS011;44302;47.914;10.642;2023-05-02T12:26:21;4.57;;;2.93;;
58512;SDS011;44302;47.914;10.642;2023-05-02T12:28:53;3.30;;;3.00;;
58512;SDS011;44302;47.914;10.642;2023-05-02T12:31:20;4.17;;;3.40;;
58512;SDS011;44302;47.914;10.642;2023-05-02T12:33:46;4.87;;;3.63;;
58512;SDS011;44302;47.914;10.642;2023-05-02T12:36:14;4.40;;;4.00;;
58512;SDS011;44302;47.914;10.642;2023-05-02T12:38:40;3.63;;;3.30;;
58512;SDS011;44302;47.914;10.642;2023-05-02T12:41:33;3.93;;;3.47;;
58512;SDS011;44302;47.914;10.642;2023-05-02T12:44:01;4.50;;;3.33;;
58512;SDS011;44302;47.914;10.642;2023-05-02T12:46:27;3.70;;;3.40;;
58512;SDS011;44302;47.914;10.642;2023-05-02T12:49:06;4.10;;;3.30;;
58512;SDS011;44302;47.914;10.642;2023-05-02T12:51:33;3.90;;;3.60;;
58512;SDS011;44302;47.914;10.642;2023-05-02T12:54:00;4.17;;;3.73;;
58512;SDS011;44302;47.914;10.642;2023-05-02T12:56:27;3.90;;;3.53;;
58512;SDS011;44302;47.914;10.642;2023-05-02T12:58:56;7.27;;;5.00;;
58512;SDS011;44302;47.914;10.642;2023-05-02T13:01:25;3.90;;;3.53;;
58512;SDS011;44302;47.914;10.642;2023-05-02T13:03:53;5.07;;;3.77;;
58512;SDS011;44302;47.914;10.642;2023-05-02T13:06:19;5.80;;;3.47;;
58512;SDS011;44302;47.914;10.642;2023-05-02T13:08:45;4.17;;;3.40;;
58512;SDS011;44302;47.914;10.642;2023-05-02T13:11:10;5.53;;;4.00;;
58512;SDS011;44302;47.914;10.642;2023-05-02T13:13:37;4.07;;;3.40;;
58512;SDS011;44302;47.914;10.642;2023-05-02T13:16:03;4.00;;;3.70;;
58512;SDS011;44302;47.914;10.642;2023-05-02T13:18:28;3.80;;;3.47;;
58512;SDS011;44302;47.914;10.642;2023-05-02T13:20:54;6.30;;;3.63;;
58512;SDS011;44302;47.914;10.642;2023-05-02T13:23:20;4.20;;;3.57;;
58512;SDS011;44302;47.914;10.642;2023-05-02T13:25:46;4.17;;;3.47;;
58512;SDS011;44302;47.914;10.642;2023-05-02T13:28:11;5.73;;;3.80;;
58512;SDS011;44302;47.914;10.642;2023-05-02T13:30:37;4.30;;;3.90;;
58512;SDS011;44302;47.914;10.642;2023-05-02T13:33:02;6.03;;;3.87;;
58512;SDS011;44302;47.914;10.642;2023-05-02T13:35:28;4.63;;;3.70;;
58512;SDS011;44302;47.914;10.642;2023-05-02T13:37:54;5.33;;;4.07;;
58512;SDS011;44302;47.914;10.642;2023-05-02T13:40:19;4.30;;;3.87;;
58512;SDS011;44302;47.914;10.642;2023-05-02T13:42:45;3.83;;;3.53;;
58512;SDS011;44302;47.914;10.642;2023-05-02T13:45:11;5.30;;;3.90;;
58512;SDS011;44302;47.914;10.642;2023-05-02T13:47:36;4.53;;;3.60;;
58512;SDS011;44302;47.914;10.642;2023-05-02T13:50:02;4.20;;;3.80;;
58512;SDS011;44302;47.914;10.642;2023-05-02T13:52:28;4.80;;;3.97;;
58512;SDS011;44302;47.914;10.642;2023-05-02T13:54:54;6.07;;;3.67;;
58512;SDS011;44302;47.914;10.642;2023-05-02T13:57:19;4.10;;;3.37;;
58512;SDS011;44302;47.914;10.642;2023-05-02T13:59:45;4.23;;;3.70;;
58512;SDS011;44302;47.914;10.642;2023-05-02T14:02:11;4.67;;;3.70;;
58512;SDS011;44302;47.914;10.642;2023-05-02T14:04:36;5.33;;;3.40;;
58512;SDS011;44302;47.914;10.642;2023-05-02T14:07:02;3.87;;;3.10;;
58512;SDS011;44302;47.914;10.642;2023-05-02T14:09:27;3.50;;;3.20;;
58512;SDS011;44302;47.914;10.642;2023-05-02T14:11:53;4.23;;;3.50;;
58512;SDS011;44302;47.914;10.642;2023-05-02T14:14:19;3.47;;;3.17;;
58512;SDS011;44302;47.914;10.642;2023-05-02T14:16:45;3.30;;;3.00;;
58512;SDS011;44302;47.914;10.642;2023-05-02T14:19:11;4.23;;;3.13;;
58512;SDS011;44302;47.914;10.642;2023-05-02T14:21:36;3.97;;;3.13;;
58512;SDS011;44302;47.914;10.642;2023-05-02T14:24:03;4.73;;;3.27;;
58512;SDS011;44302;47.914;10.642;2023-05-02T14:26:30;3.90;;;3.30;;
58512;SDS011;44302;47.914;10.642;2023-05-02T14:28:56;3.77;;;3.20;;
58512;SDS011;44302;47.914;10.642;2023-05-02T14:31:25;4.90;;;3.33;;
58512;SDS011;44302;47.914;10.642;2023-05-02T14:33:51;3.93;;;3.00;;
58512;SDS011;44302;47.914;10.642;2023-05-02T14:36:17;3.20;;;2.87;;
58512;SDS011;44302;47.914;10.642;2023-05-02T14:38:43;3.43;;;3.10;;
58512;SDS011;44302;47.914;10.642;2023-05-02T14:41:08;3.57;;;3.13;;
58512;SDS011;44302;47.914;10.642;2023-05-02T14:43:34;5.70;;;3.50;;
58512;SDS011;44302;47.914;10.642;2023-05-02T14:46:00;3.57;;;3.17;;
58512;SDS011;44302;47.914;10.642;2023-05-02T14:48:26;4.00;;;3.60;;
58512;SDS011;44302;47.914;10.642;2023-05-02T14:50:52;3.33;;;3.03;;
58512;SDS011;44302;47.914;10.642;2023-05-02T14:53:19;3.93;;;3.53;;
58512;SDS011;44302;47.914;10.642;2023-05-02T14:55:45;3.23;;;2.93;;
58512;SDS011;44302;47.914;10.642;2023-05-02T14:58:11;2.87;;;2.67;;
58512;SDS011;44302;47.914;10.642;2023-05-02T15:00:37;4.57;;;3.07;;
58512;SDS011;44302;47.914;10.642;2023-05-02T15:03:03;3.07;;;2.67;;
58512;SDS011;44302;47.914;10.642;2023-05-02T15:05:29;3.00;;;2.63;;
58512;SDS011;44302;47.914;10.642;2023-05-02T15:07:55;3.20;;;2.90;;
58512;SDS011;44302;47.914;10.642;2023-05-02T15:10:21;3.03;;;2.70;;
58512;SDS011;44302;47.914;10.642;2023-05-02T15:12:46;4.00;;;2.53;;
58512;SDS011;44302;47.914;10.642;2023-05-02T15:15:15;4.00;;;2.83;;
58512;SDS011;44302;47.914;10.642;2023-05-02T15:17:41;4.33;;;3.07;;
58512;SDS011;44302;47.914;10.642;2023-05-02T15:20:07;3.80;;;2.70;;
58512;SDS011;44302;47.914;10.642;2023-05-02T15:22:33;5.67;;;2.63;;
58512;SDS011;44302;47.914;10.642;2023-05-02T15:24:59;2.97;;;2.30;;
58512;SDS011;44302;47.914;10.642;2023-05-02T15:27:25;4.10;;;3.20;;
58512;SDS011;44302;47.914;10.642;2023-05-02T15:29:51;6.50;;;2.70;;
58512;SDS011;44302;47.914;10.642;2023-05-02T15:32:16;2.97;;;2.53;;
58512;SDS011;44302;47.914;10.642;2023-05-02T15:34:42;4.03;;;2.90;;
58512;SDS011;44302;47.914;10.642;2023-05-02T15:37:08;2.30;;;2.10;;
58512;SDS011;44302;47.914;10.642;2023-05-02T15:39:34;2.90;;;2.70;;
58512;SDS011;44302;47.914;10.642;2023-05-02T15:42:03;3.40;;;3.10;;
58512;SDS011;44302;47.914;10.642;2023-05-02T15:44:29;2.77;;;2.57;;
58512;SDS011;44302;47.914;10.642;2023-05-02T15:47:01;2.93;;;2.60;;
